createdAt,value
2023-01-21T00:01:13.015Z,36.55
2023-01-21T00:03:40.451Z,27.83
2023-01-21T00:06:08.139Z,27.15
2023-01-21T00:08:35.683Z,23.15
2023-01-21T00:11:16.968Z,24.17
2023-01-21T00:13:44.749Z,33.88
2023-01-21T00:16:13.239Z,28.40
2023-01-21T00:18:40.870Z,26.90
2023-01-21T00:21:08.530Z,28.88
2023-01-21T00:23:35.827Z,25.58
2023-01-21T00:26:05.935Z,33.00
2023-01-21T00:28:35.265Z,28.15
2023-01-21T00:31:07.320Z,27.52
2023-01-21T00:33:36.680Z,36.78
2023-01-21T00:36:10.003Z,37.88
2023-01-21T00:38:37.422Z,24.00
2023-01-21T00:41:07.497Z,27.88
2023-01-21T00:43:35.213Z,47.35
2023-01-21T00:46:03.035Z,25.70
2023-01-21T00:48:30.342Z,32.95
2023-01-21T00:51:01.451Z,31.45
2023-01-21T00:53:31.651Z,26.48
2023-01-21T00:56:04.169Z,25.05
2023-01-21T01:01:08.754Z,22.10
2023-01-21T01:03:37.290Z,22.02
2023-01-21T01:06:16.908Z,27.40
2023-01-21T01:08:45.419Z,24.83
2023-01-21T01:11:14.114Z,26.40
2023-01-21T01:13:41.404Z,33.35
2023-01-21T01:16:10.705Z,26.05
2023-01-21T01:18:38.268Z,22.02
2023-01-21T01:21:06.628Z,29.48
2023-01-21T01:23:33.977Z,22.52
2023-01-21T01:26:03.819Z,28.95
2023-01-21T01:28:32.178Z,27.00
2023-01-21T01:31:00.540Z,29.85
2023-01-21T01:33:28.029Z,27.48
2023-01-21T01:35:55.470Z,34.10
2023-01-21T01:38:23.231Z,38.60
2023-01-21T01:40:52.584Z,28.42
2023-01-21T01:43:22.887Z,31.25
2023-01-21T01:45:51.062Z,34.83
2023-01-21T01:48:28.604Z,40.03
2023-01-21T01:51:01.102Z,34.22
2023-01-21T01:55:57.846Z,34.30
2023-01-21T01:58:25.291Z,35.47
2023-01-21T02:00:52.773Z,34.28
2023-01-21T02:03:38.801Z,30.42
2023-01-21T02:06:06.502Z,27.80
2023-01-21T02:08:36.279Z,38.85
2023-01-21T02:11:11.404Z,32.35
2023-01-21T02:13:39.031Z,37.47
2023-01-21T02:16:30.228Z,37.95
2023-01-21T02:19:15.835Z,38.42
2023-01-21T02:22:01.469Z,38.80
2023-01-21T02:24:34.569Z,37.30
2023-01-21T02:27:30.860Z,38.95
2023-01-21T02:30:07.956Z,48.10
2023-01-21T02:32:54.058Z,40.50
2023-01-21T02:35:25.370Z,37.17
2023-01-21T02:38:12.420Z,36.90
2023-01-21T02:41:06.520Z,38.65
2023-01-21T02:43:47.069Z,46.03
2023-01-21T02:46:26.806Z,38.33
2023-01-21T02:48:59.871Z,42.83
2023-01-21T02:51:27.049Z,38.10
2023-01-21T02:53:54.519Z,43.42
2023-01-21T02:56:25.624Z,38.45
2023-01-21T02:59:01.258Z,45.05
2023-01-21T03:02:08.258Z,37.22
2023-01-21T03:04:57.224Z,45.60
2023-01-21T03:07:35.542Z,42.50
2023-01-21T03:10:34.641Z,46.92
2023-01-21T03:13:13.379Z,42.88
2023-01-21T03:16:09.668Z,47.95
2023-01-21T03:18:41.959Z,49.60
2023-01-21T03:21:18.521Z,56.45
2023-01-21T03:23:49.189Z,52.40
2023-01-21T03:26:20.570Z,47.60
2023-01-21T03:28:54.554Z,49.03
2023-01-21T03:31:28.219Z,50.63
2023-01-21T03:34:00.329Z,57.63
2023-01-21T03:36:48.786Z,52.67
2023-01-21T03:39:48.542Z,49.58
2023-01-21T03:42:16.562Z,48.50
2023-01-21T03:44:45.187Z,46.55
2023-01-21T03:47:22.602Z,46.42
2023-01-21T03:49:56.374Z,49.88
2023-01-21T03:52:25.548Z,47.15
2023-01-21T03:54:53.937Z,49.20
2023-01-21T03:57:21.736Z,54.40
2023-01-21T03:59:48.931Z,43.05
2023-01-21T04:02:20.432Z,45.05
2023-01-21T04:04:48.017Z,43.83
2023-01-21T04:07:16.271Z,52.78
2023-01-21T04:09:43.933Z,49.08
2023-01-21T04:12:11.807Z,50.90
2023-01-21T04:14:38.955Z,47.28
2023-01-21T04:17:07.683Z,45.08
2023-01-21T04:19:34.892Z,41.28
2023-01-21T04:22:02.364Z,43.42
2023-01-21T04:24:29.628Z,43.10
2023-01-21T04:26:57.093Z,41.83
2023-01-21T04:29:24.236Z,46.47
2023-01-21T04:31:51.650Z,41.70
2023-01-21T04:34:18.782Z,40.83
2023-01-21T04:36:46.786Z,39.70
2023-01-21T04:39:13.977Z,38.45
2023-01-21T04:41:41.453Z,42.55
2023-01-21T04:44:08.919Z,41.95
2023-01-21T04:46:36.468Z,45.45
2023-01-21T04:49:03.756Z,42.50
2023-01-21T04:51:31.334Z,43.90
2023-01-21T04:53:58.527Z,44.10
2023-01-21T04:56:26.058Z,39.88
2023-01-21T04:58:53.297Z,38.55
2023-01-21T05:01:20.754Z,41.33
2023-01-21T05:03:47.956Z,29.73
2023-01-21T05:06:15.365Z,39.42
2023-01-21T05:08:42.572Z,36.17
2023-01-21T05:11:19.860Z,33.70
2023-01-21T05:13:47.102Z,30.52
2023-01-21T05:16:14.676Z,38.63
2023-01-21T05:18:42.560Z,36.15
2023-01-21T05:21:10.105Z,38.30
2023-01-21T05:23:37.348Z,33.97
2023-01-21T05:26:04.945Z,46.05
2023-01-21T05:28:32.160Z,54.40
2023-01-21T05:31:03.514Z,49.00
2023-01-21T05:33:35.083Z,54.63
2023-01-21T05:36:04.791Z,49.53
2023-01-21T05:38:31.993Z,46.45
2023-01-21T05:41:00.845Z,56.85
2023-01-21T05:43:28.657Z,46.92
2023-01-21T05:45:57.095Z,64.70
2023-01-21T05:48:24.809Z,50.70
2023-01-21T05:50:52.495Z,50.63
2023-01-21T05:53:19.838Z,45.60
2023-01-21T05:55:51.873Z,44.08
2023-01-21T05:58:19.564Z,45.42
2023-01-21T06:00:48.509Z,32.45
2023-01-21T06:03:17.003Z,37.10
2023-01-21T06:05:45.110Z,35.70
2023-01-21T06:08:13.257Z,32.15
2023-01-21T06:10:40.768Z,31.13
2023-01-21T06:13:10.715Z,32.45
2023-01-21T06:15:38.695Z,35.42
2023-01-21T06:18:06.611Z,34.50
2023-01-21T06:20:34.804Z,35.63
2023-01-21T06:23:03.715Z,34.10
2023-01-21T06:25:32.567Z,32.45
2023-01-21T06:28:01.206Z,26.88
2023-01-21T06:30:29.140Z,45.20
2023-01-21T06:32:56.339Z,41.28
2023-01-21T06:35:24.036Z,32.08
2023-01-21T06:37:51.275Z,32.17
2023-01-21T06:40:18.968Z,58.60
2023-01-21T06:42:48.144Z,35.97
2023-01-21T06:45:16.603Z,65.85
2023-01-21T06:47:44.975Z,39.92
2023-01-21T06:50:14.828Z,44.33
2023-01-21T06:52:46.923Z,37.03
2023-01-21T06:55:15.259Z,48.10
2023-01-21T06:57:43.608Z,51.10
2023-01-21T07:00:12.613Z,41.92
2023-01-21T07:02:39.913Z,39.58
2023-01-21T07:05:08.083Z,52.97
2023-01-21T07:07:35.722Z,56.83
2023-01-21T07:10:04.032Z,30.55
2023-01-21T07:12:31.797Z,45.65
2023-01-21T07:14:59.380Z,43.50
2023-01-21T07:17:26.647Z,37.65
2023-01-21T07:19:54.017Z,32.55
2023-01-21T07:22:21.374Z,21.77
2023-01-21T07:24:49.120Z,42.40
2023-01-21T07:27:16.349Z,29.17
2023-01-21T07:29:44.415Z,43.67
2023-01-21T07:32:11.627Z,43.83
2023-01-21T07:34:39.120Z,38.85
2023-01-21T07:37:06.270Z,40.33
2023-01-21T07:39:33.749Z,20.48
2023-01-21T07:42:01.042Z,36.90
2023-01-21T07:44:28.729Z,28.58
2023-01-21T07:46:56.063Z,34.25
2023-01-21T07:49:23.875Z,43.90
2023-01-21T07:51:56.717Z,38.45
2023-01-21T07:54:24.431Z,38.28
2023-01-21T07:56:51.589Z,19.02
2023-01-21T07:59:19.316Z,33.40
2023-01-21T08:01:46.773Z,49.17
2023-01-21T08:04:14.740Z,45.80
2023-01-21T08:06:42.134Z,32.88
2023-01-21T08:09:10.621Z,42.53
2023-01-21T08:11:37.781Z,22.85
2023-01-21T08:14:05.667Z,31.77
2023-01-21T08:16:32.910Z,39.13
2023-01-21T08:19:00.477Z,30.98
2023-01-21T08:21:27.753Z,46.00
2023-01-21T08:23:55.380Z,25.05
2023-01-21T08:26:25.452Z,21.65
2023-01-21T08:28:55.738Z,25.80
2023-01-21T08:31:23.021Z,29.40
2023-01-21T08:33:50.592Z,16.52
2023-01-21T08:36:17.754Z,21.25
2023-01-21T08:38:47.134Z,33.45
2023-01-21T08:41:16.593Z,28.88
2023-01-21T08:43:44.078Z,28.90
2023-01-21T08:46:11.363Z,18.88
2023-01-21T08:48:38.875Z,21.23
2023-01-21T08:51:06.423Z,50.53
2023-01-21T08:53:33.917Z,24.65
2023-01-21T08:56:03.344Z,29.85
2023-01-21T08:58:32.222Z,36.40
2023-01-21T09:00:59.798Z,19.42
2023-01-21T09:03:27.399Z,69.30
2023-01-21T09:05:55.786Z,30.27
2023-01-21T09:08:23.256Z,30.77
2023-01-21T09:11:02.849Z,21.90
2023-01-21T09:13:33.361Z,16.05
2023-01-21T09:16:01.379Z,16.60
2023-01-21T09:18:29.316Z,22.02
2023-01-21T09:21:01.754Z,20.27
2023-01-21T09:23:32.322Z,19.70
2023-01-21T09:26:02.384Z,26.88
2023-01-21T09:28:31.354Z,17.20
2023-01-21T09:31:00.623Z,24.00
2023-01-21T09:33:29.574Z,25.40
2023-01-21T09:35:58.870Z,23.48
2023-01-21T09:38:27.283Z,24.88
2023-01-21T09:40:56.243Z,22.60
2023-01-21T09:43:29.956Z,30.55
2023-01-21T09:46:01.187Z,24.30
2023-01-21T09:48:44.025Z,15.43
2023-01-21T09:51:27.437Z,15.30
2023-01-21T09:53:57.127Z,25.00
2023-01-21T09:56:34.476Z,19.90
2023-01-21T09:59:13.022Z,13.70
2023-01-21T10:01:42.648Z,16.33
2023-01-21T10:04:32.344Z,16.50
2023-01-21T10:07:15.551Z,23.55
2023-01-21T10:09:50.961Z,45.90
2023-01-21T10:12:28.680Z,37.40
2023-01-21T10:15:19.525Z,15.10
2023-01-21T10:17:58.091Z,57.17
2023-01-21T10:20:33.439Z,26.55
2023-01-21T10:23:06.184Z,52.85
2023-01-21T10:25:36.655Z,30.77
2023-01-21T10:28:14.536Z,24.73
2023-01-21T10:30:48.270Z,24.55
2023-01-21T10:33:26.126Z,26.25
2023-01-21T10:36:30.679Z,33.95
2023-01-21T10:39:43.877Z,39.17
2023-01-21T10:42:32.334Z,25.90
2023-01-21T10:45:12.053Z,55.70
2023-01-21T10:47:54.783Z,74.10
2023-01-21T10:50:25.194Z,30.30
2023-01-21T10:53:10.791Z,95.50
2023-01-21T10:56:13.376Z,29.67
2023-01-21T10:58:53.936Z,31.40
2023-01-21T11:01:44.531Z,58.45
2023-01-21T11:04:21.952Z,30.23
2023-01-21T11:07:02.246Z,126.03
2023-01-21T11:09:33.951Z,82.13
2023-01-21T11:12:03.022Z,54.22
2023-01-21T11:14:30.531Z,73.70
2023-01-21T11:16:58.107Z,42.35
2023-01-21T11:19:32.093Z,45.92
2023-01-21T11:22:11.246Z,102.72
2023-01-21T11:24:50.541Z,56.17
2023-01-21T11:27:23.125Z,46.80
2023-01-21T11:29:50.977Z,53.80
2023-01-21T11:32:21.953Z,64.95
2023-01-21T11:35:01.405Z,48.80
2023-01-21T11:37:30.854Z,38.90
2023-01-21T11:40:08.795Z,54.80
2023-01-21T11:42:50.830Z,75.15
2023-01-21T11:45:45.300Z,66.00
2023-01-21T11:48:21.142Z,67.80
2023-01-21T11:50:48.750Z,52.33
2023-01-21T11:53:18.137Z,56.38
2023-01-21T11:55:54.279Z,66.60
2023-01-21T11:58:28.814Z,46.80
2023-01-21T12:00:59.397Z,70.70
2023-01-21T12:03:33.008Z,37.83
2023-01-21T12:06:00.937Z,33.97
2023-01-21T12:08:35.779Z,40.00
2023-01-21T12:11:06.398Z,32.90
2023-01-21T12:13:48.292Z,35.25
2023-01-21T12:16:32.897Z,30.85
2023-01-21T12:19:10.557Z,24.48
2023-01-21T12:22:08.532Z,30.23
2023-01-21T12:25:02.916Z,32.67
2023-01-21T12:27:48.846Z,41.83
2023-01-21T12:30:41.166Z,46.15
2023-01-21T12:36:06.533Z,58.70
2023-01-21T12:38:40.980Z,42.25
2023-01-21T12:41:33.226Z,47.55
2023-01-21T12:44:16.049Z,41.75
2023-01-21T12:46:47.888Z,25.23
2023-01-21T12:49:24.910Z,16.58
2023-01-21T12:52:02.565Z,18.23
2023-01-21T12:54:59.116Z,16.48
2023-01-21T12:57:41.240Z,27.38
2023-01-21T13:00:40.330Z,29.08
2023-01-21T13:03:34.854Z,26.73
2023-01-21T13:06:52.337Z,30.73
2023-01-21T13:09:40.192Z,22.00
2023-01-21T13:12:21.575Z,22.05
2023-01-21T13:14:55.411Z,19.73
2023-01-21T13:17:27.987Z,20.10
2023-01-21T13:19:55.490Z,21.08
2023-01-21T13:22:42.614Z,23.90
2023-01-21T13:25:22.459Z,21.50
2023-01-21T13:27:55.821Z,23.05
2023-01-21T13:30:43.904Z,22.98
2023-01-21T13:33:49.397Z,19.63
2023-01-21T13:36:24.499Z,22.00
2023-01-21T13:39:13.200Z,25.80
2023-01-21T13:41:58.951Z,19.10
2023-01-21T13:44:32.356Z,22.30
2023-01-21T13:47:20.208Z,21.48
2023-01-21T13:50:18.077Z,31.63
2023-01-21T13:53:15.892Z,29.83
2023-01-21T13:55:43.624Z,36.05
2023-01-21T13:58:16.473Z,62.70
2023-01-21T14:00:55.704Z,106.00
2023-01-21T14:03:31.447Z,53.00
2023-01-21T14:06:01.968Z,54.83
2023-01-21T14:08:36.167Z,37.67
2023-01-21T14:11:23.677Z,39.70
2023-01-21T14:14:28.174Z,59.72
2023-01-21T14:17:14.113Z,25.23
2023-01-21T14:19:53.236Z,22.23
2023-01-21T14:22:26.793Z,41.63
2023-01-21T14:25:21.539Z,28.48
2023-01-21T14:28:25.614Z,49.97
2023-01-21T14:31:02.548Z,39.00
2023-01-21T14:33:37.548Z,45.63
2023-01-21T14:36:14.632Z,27.77
2023-01-21T14:38:57.425Z,27.27
2023-01-21T14:41:25.017Z,32.80
2023-01-21T14:43:53.328Z,34.38
2023-01-21T14:46:28.349Z,37.45
2023-01-21T14:49:01.629Z,26.27
2023-01-21T14:51:31.963Z,29.48
2023-01-21T14:54:11.209Z,33.72
2023-01-21T14:56:39.158Z,28.50
2023-01-21T14:59:46.388Z,27.33
2023-01-21T15:02:42.280Z,35.47
2023-01-21T15:05:20.772Z,26.45
2023-01-21T15:07:51.386Z,31.17
2023-01-21T15:10:24.907Z,22.95
2023-01-21T15:12:59.654Z,26.67
2023-01-21T15:15:35.028Z,48.90
2023-01-21T15:18:34.228Z,38.35
2023-01-21T15:21:21.745Z,21.58
2023-01-21T15:23:50.637Z,31.75
2023-01-21T15:26:29.402Z,28.63
2023-01-21T15:29:16.811Z,30.65
2023-01-21T15:31:45.083Z,29.38
2023-01-21T15:34:18.300Z,32.40
2023-01-21T15:36:50.389Z,25.63
2023-01-21T15:39:31.951Z,41.15
2023-01-21T15:42:30.141Z,21.90
2023-01-21T15:45:16.103Z,28.95
2023-01-21T15:48:02.610Z,53.17
2023-01-21T15:50:57.058Z,30.90
2023-01-21T15:53:43.460Z,30.33
2023-01-21T15:56:27.341Z,37.03
2023-01-21T15:59:03.994Z,42.33
2023-01-21T16:01:38.801Z,34.67
2023-01-21T16:04:15.786Z,40.03
2023-01-21T16:06:52.889Z,39.42
2023-01-21T16:09:28.794Z,41.40
2023-01-21T16:12:27.462Z,44.08
2023-01-21T16:15:21.553Z,44.58
2023-01-21T16:17:57.504Z,40.40
2023-01-21T16:20:25.705Z,38.30
2023-01-21T16:22:58.178Z,36.13
2023-01-21T16:25:26.571Z,45.83
2023-01-21T16:27:55.300Z,50.72
2023-01-21T16:30:30.884Z,40.65
2023-01-21T16:33:27.536Z,45.33
2023-01-21T16:35:58.332Z,51.90
2023-01-21T16:38:28.542Z,47.10
2023-01-21T16:41:08.466Z,49.75
2023-01-21T16:43:37.276Z,39.80
2023-01-21T16:46:10.610Z,48.70
2023-01-21T16:48:38.052Z,43.42
2023-01-21T16:51:06.395Z,45.38
2023-01-21T16:53:33.799Z,47.63
2023-01-21T16:56:01.505Z,49.30
2023-01-21T16:58:32.603Z,56.45
2023-01-21T17:01:11.099Z,45.57
2023-01-21T17:03:39.429Z,50.30
2023-01-21T17:06:15.517Z,51.90
2023-01-21T17:08:47.369Z,50.42
2023-01-21T17:11:15.047Z,50.60
2023-01-21T17:13:44.395Z,50.30
2023-01-21T17:16:18.835Z,50.78
2023-01-21T17:19:02.369Z,49.40
2023-01-21T17:21:31.980Z,61.88
2023-01-21T17:24:03.684Z,51.58
2023-01-21T17:26:43.675Z,61.85
2023-01-21T17:29:19.856Z,58.13
2023-01-21T17:31:56.254Z,63.80
2023-01-21T17:34:26.474Z,66.03
2023-01-21T17:36:55.016Z,61.05
2023-01-21T17:39:48.161Z,69.82
2023-01-21T17:42:20.341Z,65.07
2023-01-21T17:44:54.582Z,64.70
2023-01-21T17:48:07.888Z,57.28
2023-01-21T17:50:36.392Z,55.97
2023-01-21T17:53:07.245Z,57.40
2023-01-21T17:55:39.047Z,57.78
2023-01-21T17:58:31.489Z,62.45
2023-01-21T18:01:04.379Z,66.03
2023-01-21T18:03:34.261Z,56.65
2023-01-21T18:06:02.738Z,67.28
2023-01-21T18:08:30.358Z,73.63
2023-01-21T18:10:57.757Z,80.55
2023-01-21T18:13:25.375Z,72.53
2023-01-21T18:15:54.342Z,80.32
2023-01-21T18:18:29.894Z,69.32
2023-01-21T18:20:57.617Z,74.63
2023-01-21T18:23:25.480Z,70.95
2023-01-21T18:25:53.662Z,71.95
2023-01-21T18:28:27.672Z,85.50
2023-01-21T18:30:57.340Z,75.10
2023-01-21T18:33:25.945Z,73.05
2023-01-21T18:35:53.824Z,67.57
2023-01-21T18:38:32.597Z,72.55
2023-01-21T18:41:00.880Z,77.90
2023-01-21T18:43:28.563Z,73.57
2023-01-21T18:45:56.072Z,77.68
2023-01-21T18:48:29.375Z,80.80
2023-01-21T18:50:56.811Z,80.05
2023-01-21T18:53:25.575Z,83.97
2023-01-21T18:55:56.494Z,86.50
2023-01-21T18:58:24.271Z,96.35
2023-01-21T19:00:51.688Z,88.50
2023-01-21T19:03:20.074Z,91.18
2023-01-21T19:05:47.732Z,100.45
2023-01-21T19:08:18.492Z,100.97
2023-01-21T19:10:45.913Z,105.53
2023-01-21T19:13:13.594Z,100.78
2023-01-21T19:15:41.904Z,93.43
2023-01-21T19:18:14.382Z,87.30
2023-01-21T19:20:42.246Z,93.07
2023-01-21T19:23:18.831Z,88.63
2023-01-21T19:25:52.671Z,96.22
2023-01-21T19:28:20.903Z,97.10
2023-01-21T19:30:49.880Z,93.43
2023-01-21T19:33:17.698Z,88.53
2023-01-21T19:35:46.011Z,85.30
2023-01-21T19:38:21.243Z,92.90
2023-01-21T19:40:48.625Z,86.47
2023-01-21T19:43:18.407Z,90.30
2023-01-21T19:45:45.884Z,98.10
2023-01-21T19:48:15.582Z,91.95
2023-01-21T19:50:43.274Z,92.60
2023-01-21T19:53:15.361Z,114.85
2023-01-21T19:55:44.349Z,94.72
2023-01-21T19:58:22.400Z,97.00
2023-01-21T20:00:53.554Z,92.18
2023-01-21T20:03:24.580Z,87.43
2023-01-21T20:05:54.439Z,88.38
2023-01-21T20:08:24.701Z,102.65
2023-01-21T20:10:52.234Z,92.22
2023-01-21T20:13:20.812Z,96.65
2023-01-21T20:15:50.510Z,95.15
2023-01-21T20:18:24.583Z,88.45
2023-01-21T20:20:53.114Z,101.53
2023-01-21T20:23:22.617Z,103.75
2023-01-21T20:25:58.751Z,162.27
2023-01-21T20:28:33.641Z,108.90
2023-01-21T20:31:07.611Z,104.32
2023-01-21T20:33:36.178Z,92.35
2023-01-21T20:36:07.113Z,97.40
2023-01-21T20:38:37.428Z,113.78
2023-01-21T20:41:06.181Z,100.50
2023-01-21T20:43:33.781Z,100.13
2023-01-21T20:46:07.015Z,96.00
2023-01-21T20:48:37.368Z,93.25
2023-01-21T20:51:05.174Z,96.25
2023-01-21T20:53:33.085Z,96.22
2023-01-21T20:56:09.100Z,98.47
2023-01-21T20:58:36.811Z,98.65
2023-01-21T21:01:04.417Z,99.78
2023-01-21T21:03:35.659Z,93.40
2023-01-21T21:06:11.084Z,108.38
2023-01-21T21:08:39.056Z,93.68
2023-01-21T21:11:06.398Z,97.25
2023-01-21T21:13:34.105Z,112.00
2023-01-21T21:16:02.787Z,95.85
2023-01-21T21:18:35.524Z,93.60
2023-01-21T21:21:02.861Z,87.53
2023-01-21T21:23:30.472Z,84.38
2023-01-21T21:25:57.734Z,82.10
2023-01-21T21:28:25.301Z,89.40
2023-01-21T21:30:52.770Z,89.32
2023-01-21T21:33:22.096Z,81.80
2023-01-21T21:35:49.882Z,79.43
2023-01-21T21:38:21.834Z,86.03
2023-01-21T21:40:53.112Z,87.03
2023-01-21T21:43:35.891Z,91.00
2023-01-21T21:46:30.258Z,88.60
2023-01-21T21:48:58.116Z,76.90
2023-01-21T21:51:25.575Z,81.25
2023-01-21T21:53:53.413Z,83.55
2023-01-21T21:56:23.342Z,84.35
2023-01-21T21:58:51.876Z,81.25
2023-01-21T22:01:24.947Z,88.65
2023-01-21T22:03:52.996Z,88.60
2023-01-21T22:06:22.483Z,93.78
2023-01-21T22:08:52.747Z,92.72
2023-01-21T22:11:22.036Z,78.38
2023-01-21T22:13:51.369Z,89.57
2023-01-21T22:16:29.758Z,84.15
2023-01-21T22:18:59.473Z,79.25
2023-01-21T22:21:35.551Z,87.82
2023-01-21T22:24:05.706Z,75.53
2023-01-21T22:26:35.550Z,88.53
2023-01-21T22:29:05.196Z,109.47
2023-01-21T22:31:33.385Z,101.47
2023-01-21T22:34:01.422Z,108.60
2023-01-21T22:36:30.666Z,115.80
2023-01-21T22:38:58.801Z,104.90
2023-01-21T22:41:26.556Z,108.72
2023-01-21T22:43:54.781Z,112.43
2023-01-21T22:46:33.761Z,92.50
2023-01-21T22:49:01.462Z,91.40
2023-01-21T22:51:28.897Z,90.03
2023-01-21T22:53:57.105Z,89.45
2023-01-21T22:56:45.017Z,94.22
2023-01-21T22:59:13.433Z,90.40
2023-01-21T23:01:40.973Z,80.07
2023-01-21T23:04:09.248Z,85.72
2023-01-21T23:06:37.855Z,85.40
2023-01-21T23:09:08.145Z,81.93
2023-01-21T23:11:38.801Z,77.32
2023-01-21T23:14:08.721Z,77.45
2023-01-21T23:16:36.245Z,93.35
2023-01-21T23:19:04.207Z,77.55
2023-01-21T23:21:31.623Z,91.68
2023-01-21T23:23:59.320Z,73.82
2023-01-21T23:26:26.499Z,66.10
2023-01-21T23:28:55.970Z,71.30
2023-01-21T23:31:24.299Z,73.70
2023-01-21T23:33:52.938Z,71.60
2023-01-21T23:36:20.293Z,67.75
2023-01-21T23:38:48.076Z,73.32
2023-01-21T23:41:19.774Z,68.55
2023-01-21T23:43:47.404Z,74.20
2023-01-21T23:46:16.843Z,86.97
2023-01-21T23:48:44.366Z,66.43
2023-01-21T23:51:13.442Z,76.13
2023-01-21T23:53:41.408Z,73.28
2023-01-21T23:56:19.983Z,91.60
2023-01-21T23:58:48.434Z,83.63
